Time;durP1;ratioP1;P1;durP2;ratioP2;P2;SDS_P1;SDS_P2;PMS_P1;PMS_P2;Temp;Humidity;BMP_temperature;BMP_pressure;BME280_temperature;BME280_humidity;BME280_pressure;Samples;Min_cycle;Max_cycle;Signal;HPM_P1;HPM_P2
2023/01/21 00:00:58;;;;;;;57.60;28.17;;;-1.00;99.90;;;;;;7364059;19;20018;-60
2023/01/21 00:03:26;;;;;;;66.78;31.83;;;-0.90;99.90;;;;;;7370208;19;20018;-65
2023/01/21 00:05:52;;;;;;;64.63;31.98;;;-0.90;99.90;;;;;;7373479;19;20098;-59
2023/01/21 00:08:18;;;;;;;62.72;31.73;;;-1.00;99.90;;;;;;7367484;19;20645;-59
2023/01/21 00:10:45;;;;;;;63.63;31.25;;;-1.00;99.90;;;;;;7369464;19;20037;-65
2023/01/21 00:13:14;;;;;;;63.53;31.60;;;-1.00;99.90;;;;;;7365534;19;20102;-66
2023/01/21 00:15:41;;;;;;;62.10;31.88;;;-0.90;99.90;;;;;;7364424;19;20471;-66
2023/01/21 00:18:07;;;;;;;66.00;32.40;;;-0.90;99.90;;;;;;7370090;19;20542;-66
2023/01/21 00:20:33;;;;;;;57.63;30.27;;;-0.90;99.90;;;;;;7372900;19;20023;-66
2023/01/21 00:23:00;;;;;;;63.95;33.47;;;-0.90;99.90;;;;;;7368989;19;20532;-66
2023/01/21 00:25:26;;;;;;;70.55;34.13;;;-0.80;99.90;;;;;;7367178;19;20514;-66
2023/01/21 00:27:52;;;;;;;66.50;33.08;;;-0.70;99.90;;;;;;7368015;19;20018;-65
2023/01/21 00:30:19;;;;;;;69.00;33.67;;;-0.60;99.90;;;;;;7366315;19;20049;-59
2023/01/21 00:32:46;;;;;;;64.53;32.67;;;-0.60;99.90;;;;;;7371216;19;20018;-60
2023/01/21 00:35:15;;;;;;;70.45;34.05;;;-0.50;99.90;;;;;;7364211;19;20453;-66
2023/01/21 00:37:41;;;;;;;72.22;34.70;;;-0.40;99.90;;;;;;7363193;19;20014;-60
2023/01/21 00:40:08;;;;;;;69.03;33.90;;;-0.40;99.90;;;;;;7363424;19;20359;-66
2023/01/21 00:42:34;;;;;;;61.58;33.35;;;-0.40;99.90;;;;;;7369232;19;20358;-65
2023/01/21 00:45:01;;;;;;;66.60;34.60;;;-0.30;99.90;;;;;;7372661;19;20018;-66
2023/01/21 00:47:27;;;;;;;66.93;32.40;;;-0.30;99.90;;;;;;7373423;19;20018;-66
2023/01/21 00:49:53;;;;;;;64.45;33.55;;;-0.30;99.90;;;;;;7376124;19;20025;-66
2023/01/21 00:52:20;;;;;;;63.97;34.13;;;-0.30;99.90;;;;;;7373999;19;20025;-66
2023/01/21 00:54:46;;;;;;;70.63;34.35;;;-0.20;99.90;;;;;;7372182;19;20041;-66
2023/01/21 00:57:12;;;;;;;69.53;35.65;;;-0.30;99.90;;;;;;7371598;19;20047;-66
2023/01/21 00:59:39;;;;;;;65.38;32.95;;;-0.20;99.90;;;;;;7371682;19;20025;-66
2023/01/21 01:02:05;;;;;;;66.72;34.45;;;-0.20;99.90;;;;;;7372528;19;20011;-66
2023/01/21 01:04:32;;;;;;;69.43;34.72;;;-0.30;99.90;;;;;;7368005;19;20050;-66
2023/01/21 01:06:59;;;;;;;69.13;36.90;;;-0.30;99.90;;;;;;7370604;19;20484;-66
2023/01/21 01:09:29;;;;;;;70.32;35.13;;;-0.30;99.90;;;;;;7362605;19;20545;-66
2023/01/21 01:11:57;;;;;;;64.25;33.10;;;-0.30;99.90;;;;;;7372685;19;20018;-66
2023/01/21 01:14:23;;;;;;;68.30;36.17;;;-0.30;99.90;;;;;;7370035;19;20018;-59
2023/01/21 01:16:52;;;;;;;63.83;33.65;;;-0.30;99.90;;;;;;7366296;19;20389;-59
2023/01/21 01:19:19;;;;;;;64.47;34.72;;;-0.20;99.90;;;;;;7360436;19;20086;-59
2023/01/21 01:21:46;;;;;;;64.95;32.42;;;-0.20;99.90;;;;;;7372222;19;20037;-60
2023/01/21 01:24:14;;;;;;;62.30;32.13;;;-0.20;99.90;;;;;;7368634;19;20645;-59
2023/01/21 01:26:41;;;;;;;58.15;33.33;;;-0.20;99.90;;;;;;7367160;19;20041;-59
2023/01/21 01:29:12;;;;;;;70.40;33.35;;;-0.20;99.90;;;;;;7368951;19;20517;-59
2023/01/21 01:31:38;;;;;;;61.70;32.10;;;-0.20;99.90;;;;;;7372329;19;20488;-65
2023/01/21 01:34:04;;;;;;;60.53;31.15;;;-0.20;99.90;;;;;;7366492;19;20225;-66
2023/01/21 01:36:31;;;;;;;63.67;32.35;;;-0.20;99.90;;;;;;7365789;19;20019;-66
2023/01/21 01:38:58;;;;;;;64.05;33.13;;;-0.20;99.90;;;;;;7362565;19;20476;-66
2023/01/21 01:41:27;;;;;;;61.17;30.15;;;-0.20;99.90;;;;;;7360183;19;20018;-66
2023/01/21 01:43:58;;;;;;;62.67;31.77;;;-0.20;99.90;;;;;;7362781;19;20561;-66
2023/01/21 01:46:30;;;;;;;63.95;31.75;;;-0.20;99.90;;;;;;7368920;19;20011;-65
2023/01/21 01:49:13;;;;;;;62.03;31.33;;;-0.10;99.90;;;;;;7367361;19;20014;-66
2023/01/21 01:51:58;;;;;;;63.17;32.75;;;-0.20;99.90;;;;;;7368645;19;20018;-59
2023/01/21 01:54:35;;;;;;;65.32;32.08;;;-0.10;99.90;;;;;;7366082;19;20524;-65
2023/01/21 01:57:05;;;;;;;68.78;32.35;;;-0.10;99.90;;;;;;7370146;19;20018;-61
2023/01/21 01:59:42;;;;;;;65.85;32.38;;;-0.10;99.90;;;;;;7370683;19;20014;-59
2023/01/21 02:02:13;;;;;;;61.88;32.47;;;-0.10;99.90;;;;;;7370696;19;20021;-66
2023/01/21 02:04:57;;;;;;;63.92;31.73;;;-0.10;99.90;;;;;;7371660;19;20500;-59
2023/01/21 02:07:25;;;;;;;63.22;31.17;;;0.00;99.90;;;;;;7370148;19;20022;-59
2023/01/21 02:09:52;;;;;;;63.85;32.10;;;-0.10;99.90;;;;;;7364256;19;20018;-65
2023/01/21 02:12:19;;;;;;;65.68;31.63;;;-0.10;99.90;;;;;;7362576;19;20023;-66
2023/01/21 02:14:46;;;;;;;63.50;31.05;;;-0.10;99.90;;;;;;7365717;19;20109;-59
2023/01/21 02:17:52;;;;;;;64.72;29.33;;;0.00;99.90;;;;;;7363001;19;20022;-59
2023/01/21 02:20:40;;;;;;;62.30;30.27;;;0.00;99.90;;;;;;7359118;19;20086;-66
2023/01/21 02:23:16;;;;;;;;;;;0.00;99.90;;;;;;7364155;19;20685;-66
2023/01/21 02:26:19;;;;;;;60.63;28.17;;;0.00;99.90;;;;;;7360023;19;20335;-66
2023/01/21 02:29:03;;;;;;;67.05;29.60;;;0.00;99.90;;;;;;7362924;19;20619;-68
2023/01/21 02:31:51;;;;;;;64.28;30.17;;;0.00;99.90;;;;;;7370854;19;20023;-66
2023/01/21 02:34:40;;;;;;;67.03;31.60;;;0.00;99.90;;;;;;7367772;19;20022;-66
2023/01/21 02:37:29;;;;;;;61.28;30.25;;;0.00;99.90;;;;;;7363993;19;20021;-66
2023/01/21 02:39:58;;;;;;;68.57;31.83;;;0.00;99.90;;;;;;7379443;19;20014;-66
2023/01/21 02:42:39;;;;;;;76.38;34.10;;;0.00;99.90;;;;;;7373511;19;20014;-66
2023/01/21 02:45:24;;;;;;;64.97;30.10;;;0.00;99.90;;;;;;7377361;19;20018;-66
2023/01/21 02:47:50;;;;;;;74.88;31.73;;;0.10;99.90;;;;;;7378201;19;20022;-66
2023/01/21 02:50:22;;;;;;;80.38;33.03;;;0.10;99.90;;;;;;7372568;19;20018;-66
2023/01/21 02:52:59;;;;;;;74.85;30.58;;;0.10;99.90;;;;;;7371124;19;20022;-66
2023/01/21 02:55:37;;;;;;;74.32;31.95;;;0.10;99.90;;;;;;7366703;19;20022;-66
2023/01/21 02:58:14;;;;;;;68.57;30.48;;;0.10;99.90;;;;;;7371735;19;20018;-66
2023/01/21 03:00:58;;;;;;;84.85;32.58;;;0.10;99.90;;;;;;7370506;19;20473;-66
2023/01/21 03:03:46;;;;;;;82.07;31.67;;;0.10;99.90;;;;;;7376317;19;20022;-66
2023/01/21 03:06:19;;;;;;;85.80;33.92;;;0.20;99.90;;;;;;7370606;19;20496;-59
2023/01/21 03:09:11;;;;;;;80.22;33.97;;;0.20;99.90;;;;;;7374051;19;20023;-60
2023/01/21 03:11:42;;;;;;;74.97;33.08;;;0.20;99.90;;;;;;7373878;19;20022;-59
2023/01/21 03:17:36;;;;;;;70.57;32.25;;;0.20;99.90;;;;;;7371284;19;20819;-59
2023/01/21 03:20:07;;;;;;;77.13;33.30;;;0.10;99.90;;;;;;7373234;19;20037;-60
2023/01/21 03:22:36;;;;;;;79.82;33.30;;;0.10;99.90;;;;;;7373980;19;20370;-59
2023/01/21 03:25:04;;;;;;;79.03;33.78;;;0.10;99.90;;;;;;7368146;19;20018;-59
2023/01/21 03:27:33;;;;;;;77.95;32.05;;;0.10;99.90;;;;;;7372750;19;20022;-59
2023/01/21 03:30:05;;;;;;;72.60;31.85;;;0.20;99.90;;;;;;7372518;19;20355;-59
2023/01/21 03:32:32;;;;;;;;;;;0.10;99.90;;;;;;7371555;19;20019;-59
2023/01/21 03:35:02;;;;;;;70.93;29.45;;;0.10;99.90;;;;;;7371474;19;20482;-59
2023/01/21 03:37:44;;;;;;;67.40;31.63;;;0.10;99.90;;;;;;7366242;19;20519;-60
2023/01/21 03:40:19;;;;;;;60.45;29.90;;;0.10;99.90;;;;;;7368518;19;20113;-60
2023/01/21 03:42:49;;;;;;;63.47;30.77;;;0.10;99.90;;;;;;7372511;19;20445;-59
2023/01/21 03:45:20;;;;;;;66.68;32.42;;;0.10;99.90;;;;;;7364597;19;20021;-60
2023/01/21 03:47:53;;;;;;;69.03;32.40;;;0.10;99.90;;;;;;7373468;19;20014;-60
2023/01/21 03:50:24;;;;;;;63.85;33.03;;;0.10;99.90;;;;;;7365839;19;20395;-59
2023/01/21 03:52:51;;;;;;;65.43;31.23;;;0.20;99.90;;;;;;7373518;19;20026;-60
2023/01/21 03:55:18;;;;;;;65.40;29.65;;;0.10;99.90;;;;;;7368560;19;20018;-59
2023/01/21 03:57:44;;;;;;;66.72;31.15;;;0.20;99.90;;;;;;7370177;19;20019;-65
2023/01/21 04:00:12;;;;;;;64.70;29.10;;;0.10;99.90;;;;;;7373018;19;20037;-66
2023/01/21 04:02:38;;;;;;;61.45;30.58;;;0.20;99.90;;;;;;7374206;19;20018;-59
2023/01/21 04:05:05;;;;;;;62.80;32.15;;;0.30;99.90;;;;;;7367669;19;20433;-59
2023/01/21 04:07:32;;;;;;;70.00;33.47;;;0.20;99.90;;;;;;7366348;19;20438;-59
2023/01/21 04:09:58;;;;;;;67.55;31.67;;;0.30;99.90;;;;;;7369480;19;20366;-60
2023/01/21 04:12:25;;;;;;;58.15;28.98;;;0.30;99.90;;;;;;7371070;19;20022;-59
2023/01/21 04:14:51;;;;;;;69.82;32.65;;;0.30;99.90;;;;;;7367946;19;20506;-60
2023/01/21 04:17:17;;;;;;;63.67;31.42;;;0.20;99.90;;;;;;7368349;19;20391;-59
2023/01/21 04:19:44;;;;;;;59.55;29.17;;;0.20;99.90;;;;;;7371007;19;20022;-59
2023/01/21 04:22:10;;;;;;;63.53;29.80;;;0.10;99.90;;;;;;7365128;19;20026;-59
2023/01/21 04:24:37;;;;;;;57.17;27.98;;;0.10;99.90;;;;;;7371236;19;20030;-60
2023/01/21 04:27:03;;;;;;;67.07;30.13;;;0.00;99.90;;;;;;7372722;19;20519;-59
2023/01/21 04:29:29;;;;;;;53.33;26.83;;;0.00;99.90;;;;;;7371747;19;20018;-60
2023/01/21 04:31:55;;;;;;;59.45;30.02;;;0.00;99.90;;;;;;7369250;19;20081;-60
2023/01/21 04:34:22;;;;;;;56.00;27.42;;;0.00;99.90;;;;;;7373277;19;20472;-59
2023/01/21 04:36:48;;;;;;;56.10;28.90;;;-0.10;99.90;;;;;;7367812;19;20383;-59
2023/01/21 04:39:14;;;;;;;55.05;26.63;;;-0.10;99.90;;;;;;7368695;19;20018;-59
2023/01/21 04:41:40;;;;;;;65.53;31.95;;;0.00;99.90;;;;;;7370625;19;20019;-59
2023/01/21 04:44:07;;;;;;;69.95;31.98;;;0.00;99.90;;;;;;7369953;19;20114;-59
2023/01/21 04:46:33;;;;;;;65.22;30.65;;;0.00;99.90;;;;;;7371339;19;20382;-59
2023/01/21 04:48:59;;;;;;;72.88;32.08;;;-0.10;99.90;;;;;;7371197;19;20019;-59
2023/01/21 04:51:26;;;;;;;70.53;33.30;;;-0.10;99.90;;;;;;7372046;19;20477;-60
2023/01/21 04:53:53;;;;;;;60.17;28.75;;;-0.20;99.90;;;;;;7370020;19;20102;-59
2023/01/21 04:56:19;;;;;;;69.45;31.08;;;-0.30;99.90;;;;;;7368757;19;20026;-59
2023/01/21 04:58:45;;;;;;;68.32;31.48;;;-0.40;99.90;;;;;;7373216;19;20078;-59
2023/01/21 05:01:11;;;;;;;78.63;34.25;;;-0.40;99.90;;;;;;7371534;19;20033;-59
2023/01/21 05:03:40;;;;;;;65.35;30.27;;;-0.50;99.90;;;;;;7366829;19;20021;-66
2023/01/21 05:06:06;;;;;;;75.30;31.92;;;-0.50;99.90;;;;;;7369894;19;20018;-66
2023/01/21 05:08:33;;;;;;;72.97;31.10;;;-0.60;99.90;;;;;;7368362;19;20414;-66
2023/01/21 05:11:00;;;;;;;65.53;30.30;;;-0.60;99.90;;;;;;7363361;19;20366;-66
2023/01/21 05:13:26;;;;;;;84.05;33.72;;;-0.70;99.90;;;;;;7366322;19;20512;-59
2023/01/21 05:15:52;;;;;;;73.22;32.28;;;-0.60;99.90;;;;;;7369778;19;20018;-66
2023/01/21 05:18:19;;;;;;;68.45;30.83;;;-0.70;99.90;;;;;;7369021;19;20022;-66
2023/01/21 05:20:45;;;;;;;75.60;31.95;;;-0.70;99.90;;;;;;7372427;19;20499;-60
2023/01/21 05:23:11;;;;;;;70.80;31.65;;;-0.70;99.90;;;;;;7370983;19;20018;-66
2023/01/21 05:25:38;;;;;;;72.50;31.15;;;-0.70;99.90;;;;;;7367459;19;20608;-66
2023/01/21 05:28:04;;;;;;;77.03;31.83;;;-0.80;99.90;;;;;;7368138;19;20018;-66
2023/01/21 05:30:31;;;;;;;77.22;33.33;;;-0.80;99.90;;;;;;7363550;19;20018;-66
2023/01/21 05:32:57;;;;;;;79.85;32.85;;;-0.80;99.90;;;;;;7362975;19;20023;-66
2023/01/21 05:35:24;;;;;;;90.70;35.42;;;-0.80;99.90;;;;;;7363423;19;20014;-66
2023/01/21 05:37:50;;;;;;;75.85;32.90;;;-0.80;99.90;;;;;;7364169;19;20313;-59
2023/01/21 05:40:17;;;;;;;89.10;36.33;;;-0.70;99.90;;;;;;7362407;19;20022;-59
2023/01/21 05:42:44;;;;;;;82.50;33.13;;;-0.60;99.90;;;;;;7365787;19;20027;-59
2023/01/21 05:45:11;;;;;;;84.68;35.30;;;-0.60;99.90;;;;;;7361922;19;20098;-64
2023/01/21 05:47:37;;;;;;;86.20;35.90;;;-0.50;99.90;;;;;;7365181;19;20465;-60
2023/01/21 05:50:05;;;;;;;96.00;35.83;;;-0.50;99.90;;;;;;7363152;19;20030;-65
2023/01/21 05:52:31;;;;;;;96.40;37.00;;;-0.40;99.90;;;;;;7360579;19;20022;-66
2023/01/21 05:54:57;;;;;;;82.15;35.78;;;-0.40;99.90;;;;;;7362716;19;20019;-59
2023/01/21 05:57:23;;;;;;;91.25;35.60;;;-0.40;99.90;;;;;;7357358;19;20019;-59
2023/01/21 05:59:50;;;;;;;86.57;34.83;;;-0.30;99.90;;;;;;7362610;19;20023;-66
2023/01/21 06:02:16;;;;;;;83.90;34.83;;;-0.30;99.90;;;;;;7362881;19;20618;-66
2023/01/21 06:04:42;;;;;;;79.57;34.05;;;-0.30;99.90;;;;;;7363405;19;20039;-66
2023/01/21 06:07:12;;;;;;;81.90;35.55;;;-0.30;99.90;;;;;;7363444;19;20059;-66
2023/01/21 06:09:39;;;;;;;83.13;32.45;;;-0.30;99.90;;;;;;7360460;19;20419;-67
2023/01/21 06:12:05;;;;;;;83.65;37.22;;;-0.20;99.90;;;;;;7362325;19;20592;-60
2023/01/21 06:14:31;;;;;;;83.88;35.03;;;-0.20;99.90;;;;;;7369176;19;20030;-66
2023/01/21 06:16:57;;;;;;;77.43;34.22;;;-0.20;99.90;;;;;;7363167;19;20507;-59
2023/01/21 06:19:24;;;;;;;83.22;34.95;;;-0.20;99.90;;;;;;7365133;19;20466;-65
2023/01/21 06:21:52;;;;;;;87.38;36.05;;;-0.10;99.90;;;;;;7361356;19;20061;-59
2023/01/21 06:24:18;;;;;;;75.28;34.97;;;-0.10;99.90;;;;;;7365156;19;20049;-65
2023/01/21 06:26:45;;;;;;;75.60;34.47;;;-0.10;99.90;;;;;;7363735;19;20014;-65
2023/01/21 06:29:11;;;;;;;86.40;36.13;;;0.00;99.90;;;;;;7367713;19;20018;-60
2023/01/21 06:31:38;;;;;;;82.78;33.63;;;0.00;99.90;;;;;;7365022;19;20106;-59
2023/01/21 06:34:05;;;;;;;70.47;34.13;;;0.00;99.90;;;;;;7362407;19;20029;-61
2023/01/21 06:36:31;;;;;;;78.38;33.75;;;0.10;99.90;;;;;;7364510;19;20532;-60
2023/01/21 06:38:58;;;;;;;68.57;32.15;;;0.00;99.90;;;;;;7360051;19;20015;-59
2023/01/21 06:41:24;;;;;;;71.40;34.08;;;0.10;99.90;;;;;;7367556;19;20029;-59
2023/01/21 06:43:50;;;;;;;73.70;33.67;;;0.10;99.90;;;;;;7365785;19;21198;-60
2023/01/21 06:46:17;;;;;;;69.32;33.45;;;0.10;99.90;;;;;;7366047;19;20596;-59
2023/01/21 06:48:44;;;;;;;72.43;32.70;;;0.10;99.90;;;;;;7363934;19;20015;-66
2023/01/21 06:51:11;;;;;;;67.95;32.45;;;0.10;99.90;;;;;;7364587;19;20021;-66
2023/01/21 06:53:37;;;;;;;65.53;31.35;;;0.10;99.90;;;;;;7367734;19;20015;-66
2023/01/21 06:56:04;;;;;;;64.10;32.42;;;0.20;99.90;;;;;;7366859;19;20037;-66
2023/01/21 06:58:30;;;;;;;65.13;32.30;;;0.20;99.90;;;;;;7368689;19;20430;-60
2023/01/21 07:00:57;;;;;;;74.40;33.85;;;0.20;99.90;;;;;;7364605;19;20042;-66
2023/01/21 07:03:23;;;;;;;68.20;31.25;;;0.30;99.90;;;;;;7367849;19;20577;-66
2023/01/21 07:05:50;;;;;;;67.03;31.52;;;0.30;99.90;;;;;;7366278;19;20018;-66
2023/01/21 07:08:16;;;;;;;66.72;31.52;;;0.20;99.90;;;;;;7365924;19;20071;-59
2023/01/21 07:10:43;;;;;;;66.70;29.73;;;0.30;99.90;;;;;;7364255;19;20026;-61
2023/01/21 07:13:09;;;;;;;65.70;29.13;;;0.30;99.90;;;;;;7364141;19;20025;-59
2023/01/21 07:15:36;;;;;;;60.22;29.45;;;0.30;99.90;;;;;;7364713;19;20019;-66
2023/01/21 07:18:02;;;;;;;66.45;31.63;;;0.30;99.90;;;;;;7367516;19;20153;-60
2023/01/21 07:20:31;;;;;;;63.67;31.10;;;0.20;99.90;;;;;;7366580;19;20014;-59
2023/01/21 07:22:57;;;;;;;72.72;33.40;;;0.20;99.90;;;;;;7366102;19;20022;-66
2023/01/21 07:25:24;;;;;;;65.63;31.48;;;0.30;99.90;;;;;;7366301;19;20035;-59
2023/01/21 07:28:10;;;;;;;66.35;30.75;;;0.30;99.90;;;;;;7368339;19;20644;-59
2023/01/21 07:31:01;;;;;;;62.42;29.58;;;0.30;99.90;;;;;;7364019;19;20497;-66
2023/01/21 07:33:47;;;;;;;66.07;31.13;;;0.30;99.90;;;;;;7366384;19;20485;-66
2023/01/21 07:36:34;;;;;;;71.05;31.98;;;0.30;99.90;;;;;;7364170;19;20022;-66
2023/01/21 07:39:21;;;;;;;67.00;32.80;;;0.30;99.90;;;;;;7364871;19;20825;-66
2023/01/21 07:42:09;;;;;;;64.45;29.75;;;0.30;99.90;;;;;;7367621;19;20564;-66
2023/01/21 07:44:35;;;;;;;62.75;30.73;;;0.30;99.90;;;;;;7364889;19;20018;-66
2023/01/21 07:47:03;;;;;;;63.38;31.23;;;0.40;99.90;;;;;;7363947;19;20028;-66
2023/01/21 07:49:30;;;;;;;64.22;31.88;;;0.40;99.90;;;;;;7365705;19;20615;-66
2023/01/21 07:51:57;;;;;;;87.25;48.40;;;0.40;99.90;;;;;;7366151;19;20014;-67
2023/01/21 07:54:23;;;;;;;65.38;34.30;;;0.30;99.90;;;;;;7369008;19;20041;-66
2023/01/21 07:56:49;;;;;;;68.22;33.75;;;0.40;99.90;;;;;;7365185;19;20374;-67
2023/01/21 07:59:20;;;;;;;67.82;32.92;;;0.30;99.90;;;;;;7366563;19;20015;-67
2023/01/21 08:01:46;;;;;;;69.07;32.05;;;0.30;99.90;;;;;;7368067;19;20608;-66
2023/01/21 08:04:13;;;;;;;67.82;32.20;;;0.40;99.90;;;;;;7367851;19;20031;-66
2023/01/21 08:06:42;;;;;;;71.32;34.38;;;0.40;99.90;;;;;;7367649;19;20382;-67
2023/01/21 08:09:09;;;;;;;69.05;32.97;;;0.40;99.90;;;;;;7368017;19;20118;-59
2023/01/21 08:11:36;;;;;;;62.17;30.65;;;0.40;99.90;;;;;;7361766;19;20524;-59
2023/01/21 08:14:02;;;;;;;69.47;34.38;;;0.40;99.90;;;;;;7366148;19;20029;-59
2023/01/21 08:16:29;;;;;;;62.25;32.15;;;0.40;99.90;;;;;;7363376;19;20550;-68
2023/01/21 08:18:55;;;;;;;66.93;32.53;;;0.40;99.90;;;;;;7364099;19;20442;-66
2023/01/21 08:21:22;;;;;;;72.45;34.78;;;0.40;99.90;;;;;;7364019;19;20645;-66
2023/01/21 08:23:54;;;;;;;66.07;31.17;;;0.40;99.90;;;;;;7364898;19;20014;-59
2023/01/21 08:26:27;;;;;;;62.15;30.42;;;0.40;99.90;;;;;;7365441;19;20018;-66
2023/01/21 08:29:14;;;;;;;70.75;32.15;;;0.40;99.90;;;;;;7365783;19;20014;-66
2023/01/21 08:31:41;;;;;;;66.50;32.33;;;0.50;99.90;;;;;;7364350;19;20023;-66
2023/01/21 08:34:07;;;;;;;67.80;32.05;;;0.50;99.90;;;;;;7366346;19;20032;-58
2023/01/21 08:36:42;;;;;;;62.08;32.25;;;0.50;99.90;;;;;;7363581;19;20477;-59
2023/01/21 08:39:11;;;;;;;62.38;32.88;;;0.50;99.90;;;;;;7363848;19;20097;-65
2023/01/21 08:41:39;;;;;;;64.40;32.70;;;0.50;99.90;;;;;;7363311;19;20470;-65
2023/01/21 08:44:06;;;;;;;58.42;29.92;;;0.50;99.90;;;;;;7367937;19;20026;-59
2023/01/21 08:46:33;;;;;;;71.00;33.53;;;0.50;99.90;;;;;;7361232;19;20026;-65
2023/01/21 08:48:59;;;;;;;91.13;47.40;;;0.50;99.90;;;;;;7363419;19;20477;-66
2023/01/21 08:51:25;;;;;;;72.35;37.78;;;0.70;99.90;;;;;;7361673;19;20038;-69
2023/01/21 08:53:52;;;;;;;78.63;39.38;;;0.70;99.90;;;;;;7362640;19;20042;-60
2023/01/21 08:56:19;;;;;;;68.15;35.10;;;0.80;99.90;;;;;;7363441;19;20481;-57
2023/01/21 08:58:45;;;;;;;66.35;33.35;;;0.80;99.90;;;;;;7366697;19;20018;-61
2023/01/21 09:01:16;;;;;;;65.18;35.60;;;0.80;99.90;;;;;;7367589;19;20019;-60
2023/01/21 09:03:43;;;;;;;63.57;34.10;;;0.90;99.90;;;;;;7364443;19;20026;-64
2023/01/21 09:06:10;;;;;;;78.80;36.13;;;1.00;99.90;;;;;;7365891;19;20308;-61
2023/01/21 09:08:38;;;;;;;63.03;33.03;;;1.20;99.90;;;;;;7367612;19;20018;-63
2023/01/21 09:11:05;;;;;;;63.35;33.03;;;1.10;99.90;;;;;;7366766;19;20022;-63
2023/01/21 09:13:38;;;;;;;73.55;39.25;;;1.20;99.90;;;;;;7362148;19;20622;-64
2023/01/21 09:16:16;;;;;;;66.72;33.60;;;1.20;99.90;;;;;;7364861;19;20404;-60
2023/01/21 09:18:43;;;;;;;65.25;34.13;;;1.20;99.90;;;;;;7364036;19;20023;-61
2023/01/21 09:21:13;;;;;;;50.55;29.25;;;1.20;99.90;;;;;;7364412;19;20014;-65
2023/01/21 09:23:43;;;;;;;60.75;31.67;;;1.30;99.90;;;;;;7361251;19;20018;-66
2023/01/21 09:26:14;;;;;;;58.75;33.17;;;1.30;99.90;;;;;;7366870;19;20018;-72
2023/01/21 09:28:43;;;;;;;60.47;32.15;;;1.30;99.90;;;;;;7363016;19;20026;-64
2023/01/21 09:31:12;;;;;;;60.08;32.58;;;1.30;99.90;;;;;;7363912;19;20628;-64
2023/01/21 09:34:02;;;;;;;63.70;36.08;;;1.30;99.90;;;;;;7361167;19;20366;-69
2023/01/21 09:36:48;;;;;;;59.50;32.45;;;1.30;99.90;;;;;;7366041;19;20026;-65
2023/01/21 09:39:24;;;;;;;61.65;32.22;;;1.40;99.90;;;;;;7363776;19;20018;-64
2023/01/21 09:41:52;;;;;;;59.20;33.20;;;1.40;99.90;;;;;;7363825;19;20022;-60
2023/01/21 09:44:43;;;;;;;57.75;33.75;;;1.50;99.90;;;;;;7363901;19;20363;-64
2023/01/21 09:47:09;;;;;;;54.40;31.27;;;1.50;99.90;;;;;;7366006;19;20656;-63
2023/01/21 09:49:43;;;;;;;52.85;29.83;;;1.60;99.90;;;;;;7374517;19;20018;-63
2023/01/21 09:52:35;;;;;;;58.55;32.65;;;1.50;99.90;;;;;;7368553;19;20018;-64
2023/01/21 09:55:02;;;;;;;56.72;32.05;;;1.70;99.90;;;;;;7376196;19;20018;-64
2023/01/21 09:57:33;;;;;;;52.28;30.70;;;1.70;99.90;;;;;;7367805;19;20050;-65
2023/01/21 10:00:31;;;;;;;54.95;31.38;;;1.60;99.90;;;;;;7374122;19;20611;-66
2023/01/21 10:03:06;;;;;;;58.05;30.42;;;1.60;99.90;;;;;;7373179;19;20039;-65
2023/01/21 10:05:43;;;;;;;60.30;31.35;;;1.60;99.90;;;;;;7369029;19;20035;-60
2023/01/21 10:08:23;;;;;;;60.17;32.53;;;1.60;99.90;;;;;;7371215;19;20037;-59
2023/01/21 10:11:30;;;;;;;58.80;34.63;;;1.70;99.90;;;;;;7369287;19;20018;-66
2023/01/21 10:14:03;;;;;;;50.63;31.20;;;1.70;99.90;;;;;;7368473;19;20071;-65
2023/01/21 10:16:59;;;;;;;55.60;31.83;;;1.80;99.90;;;;;;7367995;19;20824;-65
2023/01/21 10:19:54;;;;;;;56.35;35.10;;;1.80;99.90;;;;;;7368845;19;20035;-66
2023/01/21 10:22:27;;;;;;;48.85;30.38;;;1.90;99.90;;;;;;7370737;19;20014;-66
2023/01/21 10:25:22;;;;;;;51.67;32.13;;;1.90;99.90;;;;;;7371104;19;20374;-66
2023/01/21 10:27:48;;;;;;;46.40;30.35;;;1.90;99.90;;;;;;7368156;19;20097;-66
2023/01/21 10:30:28;;;;;;;47.22;30.25;;;1.90;99.90;;;;;;7370247;19;20061;-66
2023/01/21 10:32:55;;;;;;;50.85;31.83;;;1.90;99.90;;;;;;7370324;19;20014;-66
2023/01/21 10:35:43;;;;;;;50.45;31.17;;;2.00;99.90;;;;;;7369212;19;20358;-66
2023/01/21 10:38:24;;;;;;;53.05;31.98;;;2.00;99.90;;;;;;7367889;19;20026;-66
2023/01/21 10:40:59;;;;;;;52.17;30.73;;;2.10;99.90;;;;;;7370863;19;20460;-66
2023/01/21 10:43:35;;;;;;;42.67;27.60;;;2.10;99.90;;;;;;7368227;19;20472;-66
2023/01/21 10:46:43;;;;;;;50.30;29.67;;;2.30;99.90;;;;;;7367229;19;20022;-66
2023/01/21 10:49:27;;;;;;;45.25;30.75;;;2.40;99.90;;;;;;7365917;19;20037;-66
2023/01/21 10:52:05;;;;;;;45.10;26.95;;;2.60;99.90;;;;;;7364116;19;20025;-66
2023/01/21 10:54:46;;;;;;;44.80;28.52;;;2.70;99.90;;;;;;7365152;19;20438;-59
2023/01/21 10:57:12;;;;;;;45.05;28.40;;;2.80;99.90;;;;;;7365366;19;20583;-65
2023/01/21 10:59:42;;;;;;;41.92;28.05;;;2.80;99.90;;;;;;7366939;19;20125;-66
2023/01/21 11:02:18;;;;;;;42.88;28.35;;;2.90;99.90;;;;;;7363816;19;20581;-66
2023/01/21 11:04:44;;;;;;;40.75;27.08;;;3.20;99.90;;;;;;7370528;19;20018;-66
2023/01/21 11:07:14;;;;;;;40.25;25.65;;;3.80;99.90;;;;;;7368195;19;20018;-67
2023/01/21 11:09:45;;;;;;;38.65;26.35;;;4.50;99.90;;;;;;7370315;19;20014;-66
2023/01/21 11:12:16;;;;;;;39.60;28.38;;;5.00;99.90;;;;;;7368489;19;20021;-67
2023/01/21 11:15:12;;;;;;;38.70;27.92;;;6.10;99.90;;;;;;7368747;19;20041;-67
2023/01/21 11:17:42;;;;;;;31.52;24.35;;;6.80;99.90;;;;;;7368356;19;20014;-67
2023/01/21 11:20:28;;;;;;;32.20;24.35;;;7.30;99.90;;;;;;7368119;19;20018;-67
2023/01/21 11:22:54;;;;;;;30.70;23.65;;;7.80;99.90;;;;;;7372335;19;20086;-67
2023/01/21 11:25:41;;;;;;;30.65;23.05;;;7.80;99.90;;;;;;7369631;19;20425;-67
2023/01/21 11:28:25;;;;;;;29.45;23.45;;;7.50;99.90;;;;;;7372435;19;20481;-67
2023/01/21 11:31:14;;;;;;;29.38;23.38;;;8.00;99.90;;;;;;7372268;19;20033;-67
2023/01/21 11:33:42;;;;;;;31.08;24.27;;;7.90;99.90;;;;;;7369255;19;20038;-67
2023/01/21 11:36:12;;;;;;;27.77;22.77;;;8.30;99.90;;;;;;7372254;19;20010;-68
2023/01/21 11:38:40;;;;;;;27.10;22.65;;;8.40;99.90;;;;;;7367046;19;20600;-67
2023/01/21 11:41:15;;;;;;;26.85;21.88;;;8.80;99.90;;;;;;7369797;19;20473;-67
2023/01/21 11:43:52;;;;;;;27.25;22.52;;;9.40;99.90;;;;;;7366077;19;20014;-67
2023/01/21 11:46:33;;;;;;;27.98;23.92;;;9.60;99.90;;;;;;7369519;19;20015;-67
2023/01/21 11:49:06;;;;;;;25.08;21.10;;;10.20;99.90;;;;;;7370250;19;20034;-60
2023/01/21 11:51:33;;;;;;;24.65;20.95;;;10.60;99.90;;;;;;7366685;19;20019;-60
2023/01/21 11:54:11;;;;;;;22.45;19.95;;;10.70;99.90;;;;;;7367992;19;20026;-59
2023/01/21 11:56:37;;;;;;;26.02;22.33;;;10.70;99.90;;;;;;7366065;19;20018;-67
2023/01/21 11:59:21;;;;;;;22.92;20.30;;;10.40;99.90;;;;;;7368704;19;20701;-59
2023/01/21 12:02:19;;;;;;;24.90;20.98;;;9.90;99.90;;;;;;7370253;19;20603;-67
2023/01/21 12:04:52;;;;;;;24.67;21.15;;;9.20;99.90;;;;;;7364838;19;20022;-67
2023/01/21 12:07:24;;;;;;;23.92;20.55;;;8.70;99.90;;;;;;7366932;19;20011;-60
2023/01/21 12:10:13;;;;;;;24.45;20.73;;;8.10;99.90;;;;;;7368321;19;20061;-59
2023/01/21 12:12:51;;;;;;;25.58;21.13;;;7.60;99.90;;;;;;7365895;19;20014;-59
2023/01/21 12:15:29;;;;;;;26.27;19.90;;;7.20;99.90;;;;;;7363603;19;20030;-67
2023/01/21 12:18:25;;;;;;;23.33;20.10;;;6.90;99.90;;;;;;7362866;19;20018;-59
2023/01/21 12:21:29;;;;;;;27.38;20.73;;;6.60;99.90;;;;;;7363428;19;20481;-67
2023/01/21 12:24:20;;;;;;;26.95;20.20;;;6.30;99.90;;;;;;7363291;19;20538;-67
2023/01/21 12:27:02;;;;;;;25.98;20.55;;;6.10;99.90;;;;;;7362942;19;20057;-67
2023/01/21 12:30:01;;;;;;;23.70;19.25;;;6.00;99.90;;;;;;7363514;19;20018;-67
2023/01/21 12:32:43;;;;;;;23.92;18.75;;;5.80;99.90;;;;;;7365589;19;20053;-67
2023/01/21 12:35:22;;;;;;;22.98;18.38;;;5.80;99.90;;;;;;7363843;19;20022;-59
2023/01/21 12:37:53;;;;;;;22.23;18.13;;;5.70;99.90;;;;;;7371092;19;20505;-59
2023/01/21 12:40:38;;;;;;;20.90;17.58;;;5.80;99.90;;;;;;7362316;19;20021;-66
2023/01/21 12:43:32;;;;;;;94.68;72.75;;;5.80;99.90;;;;;;7363723;19;20041;-63
2023/01/21 12:45:58;;;;;;;32.28;24.45;;;6.00;99.90;;;;;;7362909;19;20085;-58
2023/01/21 12:48:33;;;;;;;23.83;18.27;;;6.30;99.90;;;;;;7360373;19;20457;-68
2023/01/21 12:51:13;;;;;;;31.98;26.00;;;6.60;99.90;;;;;;7362941;19;20497;-66
2023/01/21 12:53:57;;;;;;;23.88;18.98;;;6.90;99.90;;;;;;7359297;19;20030;-58
2023/01/21 12:56:45;;;;;;;24.77;18.98;;;8.20;99.90;;;;;;7356078;19;20018;-66
2023/01/21 12:59:23;;;;;;;40.33;32.40;;;9.40;99.90;;;;;;7357128;19;20027;-66
2023/01/21 13:01:59;;;;;;;22.73;19.17;;;10.30;99.90;;;;;;7362306;19;20069;-58